Time;durP1;ratioP1;P1;durP2;ratioP2;P2;SDS_P1;SDS_P2;PMS_P1;PMS_P2;Temp;Humidity;BMP_temperature;BMP_pressure;BME280_temperature;BME280_humidity;BME280_pressure;Samples;Min_cycle;Max_cycle;Signal;HPM_P1;HPM_P2
2023/04/21 00:00:58;;;;;;;293.38;26.95;;;5.10;99.90;;;;;;4990249;28;20027;-70
2023/04/21 00:03:26;;;;;;;289.33;27.20;;;5.20;99.90;;;;;;4988951;28;20835;-70
2023/04/21 00:05:52;;;;;;;299.70;27.65;;;5.20;99.90;;;;;;4989509;28;20533;-70
2023/04/21 00:08:18;;;;;;;476.73;28.88;;;5.10;99.90;;;;;;4989166;28;20063;-69
2023/04/21 00:10:45;;;;;;;964.53;37.63;;;5.10;99.90;;;;;;4989779;28;20030;-70
2023/04/21 00:13:11;;;;;;;895.38;34.03;;;5.10;99.90;;;;;;4971114;28;20462;-69
2023/04/21 00:15:37;;;;;;;821.58;34.28;;;5.00;99.90;;;;;;4990066;28;20034;-70
2023/04/21 00:18:03;;;;;;;592.28;32.03;;;4.90;99.90;;;;;;4990386;28;20092;-70
2023/04/21 00:20:29;;;;;;;107.03;19.92;;;4.90;99.90;;;;;;4986568;28;20018;-70
2023/04/21 00:22:55;;;;;;;617.40;29.35;;;4.90;99.90;;;;;;4980355;28;20053;-70
2023/04/21 00:25:22;;;;;;;491.90;28.58;;;4.90;99.90;;;;;;4970693;28;20070;-70
2023/04/21 00:27:47;;;;;;;170.02;22.52;;;4.90;99.90;;;;;;4989251;28;20038;-70
2023/04/21 00:30:13;;;;;;;176.77;23.85;;;4.80;99.90;;;;;;4988508;28;20034;-71
2023/04/21 00:32:39;;;;;;;313.58;25.33;;;4.80;99.90;;;;;;4987651;28;20066;-70
2023/04/21 00:35:05;;;;;;;80.75;23.10;;;4.90;99.90;;;;;;4985370;28;20031;-70
2023/04/21 00:37:31;;;;;;;58.03;22.67;;;4.90;99.90;;;;;;4981212;28;20383;-70
2023/04/21 00:39:57;;;;;;;80.95;24.00;;;4.90;99.90;;;;;;4987718;28;20506;-70
2023/04/21 00:42:23;;;;;;;74.43;22.77;;;4.90;99.90;;;;;;4987171;28;20030;-70
2023/04/21 00:44:49;;;;;;;104.93;23.75;;;4.90;99.90;;;;;;4990604;28;20396;-71
2023/04/21 00:47:15;;;;;;;137.07;24.15;;;4.90;99.90;;;;;;4994008;28;20157;-70
2023/04/21 00:49:41;;;;;;;52.92;22.92;;;4.90;99.90;;;;;;4989401;28;20064;-71
2023/04/21 00:52:07;;;;;;;59.00;21.77;;;4.90;99.90;;;;;;4987605;28;20037;-71
2023/04/21 00:54:35;;;;;;;59.47;22.98;;;4.80;99.90;;;;;;4988985;28;20498;-71
2023/04/21 00:57:02;;;;;;;59.17;23.63;;;4.90;99.90;;;;;;4989003;28;20030;-70
2023/04/21 00:59:28;;;;;;;137.10;24.42;;;4.90;99.90;;;;;;4986667;28;20619;-71
2023/04/21 01:01:54;;;;;;;63.17;24.08;;;4.90;99.90;;;;;;4987676;28;20068;-70
2023/04/21 01:04:20;;;;;;;57.55;23.40;;;4.90;99.90;;;;;;4987823;28;20070;-70
2023/04/21 01:06:46;;;;;;;53.38;23.60;;;4.90;99.90;;;;;;4987550;28;20034;-71
2023/04/21 01:09:12;;;;;;;53.28;22.70;;;4.90;99.90;;;;;;4986499;28;20117;-69
2023/04/21 01:11:38;;;;;;;59.78;24.40;;;4.90;99.90;;;;;;4987177;28;20129;-70
2023/04/21 01:14:04;;;;;;;65.85;24.30;;;5.00;99.90;;;;;;4987538;28;20113;-70
2023/04/21 01:16:32;;;;;;;67.25;26.65;;;5.00;99.90;;;;;;4983874;28;20163;-70
2023/04/21 01:18:59;;;;;;;88.43;24.88;;;5.10;99.90;;;;;;4987177;28;20030;-70
2023/04/21 01:21:25;;;;;;;55.47;24.13;;;5.10;99.90;;;;;;4987751;28;20034;-70
2023/04/21 01:23:52;;;;;;;60.10;25.15;;;5.10;99.90;;;;;;4988441;28;20379;-70
2023/04/21 01:26:21;;;;;;;56.17;24.00;;;5.10;99.90;;;;;;4989144;28;20034;-70
2023/04/21 01:28:47;;;;;;;63.78;24.00;;;5.10;99.90;;;;;;4989018;28;20030;-71
2023/04/21 01:31:14;;;;;;;51.85;22.60;;;5.10;99.90;;;;;;4987623;28;20034;-70
2023/04/21 01:33:40;;;;;;;56.53;23.38;;;5.10;99.90;;;;;;4984620;28;20056;-70
2023/04/21 01:36:07;;;;;;;48.80;21.80;;;5.10;99.90;;;;;;4988096;28;20688;-70
2023/04/21 01:38:32;;;;;;;51.30;22.45;;;5.20;99.90;;;;;;4987328;28;20666;-70
2023/04/21 01:40:58;;;;;;;83.80;24.05;;;5.20;99.90;;;;;;4969318;28;20038;-70
2023/04/21 01:43:24;;;;;;;50.63;21.67;;;5.20;99.90;;;;;;4969059;28;20468;-70
2023/04/21 01:45:51;;;;;;;61.05;21.88;;;5.10;99.90;;;;;;4987646;28;20089;-70
2023/04/21 01:48:16;;;;;;;63.58;22.70;;;5.20;99.90;;;;;;4979865;28;20368;-70
2023/04/21 01:50:42;;;;;;;106.50;22.73;;;5.10;99.90;;;;;;4989201;28;20085;-70
2023/04/21 01:53:08;;;;;;;48.75;20.85;;;5.10;99.90;;;;;;4989208;28;20034;-70
2023/04/21 01:55:33;;;;;;;48.47;21.35;;;5.10;99.90;;;;;;4988531;28;20475;-70
2023/04/21 01:57:59;;;;;;;53.95;21.23;;;5.10;99.90;;;;;;4989187;28;20033;-71
2023/04/21 02:00:25;;;;;;;48.17;21.27;;;5.10;99.90;;;;;;4986009;28;20859;-71
2023/04/21 02:02:51;;;;;;;48.78;21.95;;;5.20;99.90;;;;;;4984957;28;20026;-70
2023/04/21 02:05:17;;;;;;;45.38;20.00;;;5.10;99.90;;;;;;4987527;28;20049;-70
2023/04/21 02:07:43;;;;;;;49.63;20.60;;;5.20;99.90;;;;;;4988808;28;20058;-70
2023/04/21 02:10:09;;;;;;;45.15;19.67;;;5.10;99.90;;;;;;4989231;28;20471;-71
2023/04/21 02:12:36;;;;;;;44.33;19.40;;;5.20;99.90;;;;;;4987520;28;20077;-70
2023/04/21 02:15:02;;;;;;;45.70;19.27;;;5.20;99.90;;;;;;4989179;28;20525;-72
2023/04/21 02:17:28;;;;;;;46.67;19.23;;;5.20;99.90;;;;;;4988302;28;20071;-70
2023/04/21 02:19:53;;;;;;;45.65;19.25;;;5.20;99.90;;;;;;4987163;28;20493;-71
2023/04/21 02:22:21;;;;;;;45.88;20.27;;;5.30;99.90;;;;;;4987661;28;20038;-70
2023/04/21 02:24:46;;;;;;;46.05;18.52;;;5.20;99.90;;;;;;4988311;28;20038;-70
2023/04/21 02:27:12;;;;;;;42.85;18.83;;;5.30;99.90;;;;;;4988341;28;20089;-70
2023/04/21 02:29:38;;;;;;;45.72;19.88;;;5.20;99.90;;;;;;4988202;28;20035;-70
2023/04/21 02:32:03;;;;;;;44.97;19.42;;;5.30;99.90;;;;;;4988450;28;20113;-71
2023/04/21 02:34:29;;;;;;;45.65;20.42;;;5.30;99.90;;;;;;4986724;28;20503;-70
2023/04/21 02:36:55;;;;;;;49.03;20.70;;;5.20;99.90;;;;;;4988040;28;20034;-70
2023/04/21 02:39:20;;;;;;;44.47;19.65;;;5.10;99.90;;;;;;4985009;28;20093;-71
2023/04/21 02:41:46;;;;;;;42.97;19.77;;;5.10;99.90;;;;;;4985369;28;20080;-70
2023/04/21 02:44:11;;;;;;;71.13;20.33;;;5.20;99.90;;;;;;4987602;28;20022;-71
2023/04/21 02:46:40;;;;;;;135.63;24.63;;;5.20;99.90;;;;;;4985753;28;20593;-70
2023/04/21 02:49:06;;;;;;;77.03;21.48;;;5.10;99.90;;;;;;4990871;28;20042;-71
2023/04/21 02:51:32;;;;;;;45.58;19.52;;;5.00;99.90;;;;;;4989456;28;20058;-70
2023/04/21 02:53:57;;;;;;;42.83;19.52;;;5.00;99.90;;;;;;5005242;28;20066;-71
2023/04/21 02:56:23;;;;;;;39.97;18.35;;;5.10;99.90;;;;;;4990682;28;20026;-71
2023/04/21 02:58:49;;;;;;;50.20;20.13;;;5.00;99.90;;;;;;4989500;28;20037;-71
2023/04/21 03:01:15;;;;;;;44.72;19.38;;;5.10;99.90;;;;;;4980381;28;20038;-71
2023/04/21 03:03:40;;;;;;;39.08;17.73;;;5.10;99.90;;;;;;4991346;28;20036;-71
2023/04/21 03:06:06;;;;;;;45.85;20.13;;;5.10;99.90;;;;;;4991462;28;20048;-70
2023/04/21 03:08:32;;;;;;;48.38;20.05;;;5.10;99.90;;;;;;4985482;28;20482;-70
2023/04/21 03:10:58;;;;;;;43.83;19.10;;;5.10;99.90;;;;;;4988138;28;20030;-70
2023/04/21 03:13:23;;;;;;;50.10;20.60;;;5.20;99.90;;;;;;4988478;28;20038;-69
2023/04/21 03:15:50;;;;;;;49.75;19.77;;;5.10;99.90;;;;;;4989705;28;20037;-70
2023/04/21 03:18:16;;;;;;;549.75;29.85;;;5.10;99.90;;;;;;4990751;28;20065;-70
2023/04/21 03:20:42;;;;;;;869.28;32.95;;;5.10;99.90;;;;;;4987412;28;20026;-70
2023/04/21 03:23:07;;;;;;;47.28;18.80;;;5.00;99.90;;;;;;4995456;28;20783;-70
2023/04/21 03:25:33;;;;;;;88.30;18.73;;;5.00;99.90;;;;;;5006086;28;20034;-70
2023/04/21 03:27:59;;;;;;;43.05;19.13;;;4.90;99.90;;;;;;4991190;28;20129;-71
2023/04/21 03:30:25;;;;;;;58.13;20.52;;;4.90;99.90;;;;;;4991172;28;20030;-70
2023/04/21 03:32:51;;;;;;;58.10;19.95;;;4.80;99.90;;;;;;4990045;28;20490;-70
2023/04/21 03:35:17;;;;;;;52.15;19.92;;;4.80;99.90;;;;;;4991029;28;20033;-70
2023/04/21 03:37:43;;;;;;;72.88;22.92;;;4.80;99.90;;;;;;4991012;28;20104;-70
2023/04/21 03:40:09;;;;;;;52.67;22.50;;;4.90;99.90;;;;;;4994150;28;20470;-70
2023/04/21 03:42:36;;;;;;;47.88;19.80;;;4.80;99.90;;;;;;4972345;28;20026;-70
2023/04/21 03:45:06;;;;;;;78.47;19.10;;;4.80;99.90;;;;;;4991555;28;20038;-69
2023/04/21 03:47:31;;;;;;;46.40;18.90;;;4.80;99.90;;;;;;4990061;28;20026;-70
2023/04/21 03:49:57;;;;;;;41.92;18.27;;;4.80;99.90;;;;;;4991369;28;20121;-70
2023/04/21 03:52:23;;;;;;;41.15;17.58;;;4.70;99.90;;;;;;4989165;28;20453;-70
2023/04/21 03:54:49;;;;;;;44.15;17.90;;;4.70;99.90;;;;;;4990582;28;20081;-70
2023/04/21 03:57:14;;;;;;;41.63;17.23;;;4.70;99.90;;;;;;4990184;28;20073;-70
2023/04/21 03:59:40;;;;;;;52.67;19.15;;;4.60;99.90;;;;;;4988536;28;20034;-67
2023/04/21 04:02:06;;;;;;;58.30;18.73;;;4.60;99.90;;;;;;4979832;28;20070;-67
2023/04/21 04:04:32;;;;;;;68.90;18.63;;;4.60;99.90;;;;;;4990124;28;20046;-66
2023/04/21 04:06:57;;;;;;;81.07;18.80;;;4.60;99.90;;;;;;4990300;28;20545;-66
2023/04/21 04:09:23;;;;;;;60.95;18.48;;;4.50;99.90;;;;;;4987235;28;20054;-66
2023/04/21 04:11:49;;;;;;;71.97;19.17;;;4.60;99.90;;;;;;4985446;28;20471;-66
2023/04/21 04:14:15;;;;;;;322.10;23.08;;;4.50;99.90;;;;;;4988096;28;20042;-66
2023/04/21 04:16:40;;;;;;;113.82;19.80;;;4.50;99.90;;;;;;4985832;28;20101;-71
2023/04/21 04:19:06;;;;;;;51.33;18.45;;;4.50;99.90;;;;;;4989896;28;20030;-70
2023/04/21 04:21:32;;;;;;;47.20;17.52;;;4.50;99.90;;;;;;4986701;28;20042;-71
2023/04/21 04:23:58;;;;;;;77.68;17.63;;;4.50;99.90;;;;;;4987626;28;20045;-69
2023/04/21 04:26:24;;;;;;;347.70;25.65;;;4.50;99.90;;;;;;4983363;28;20030;-70
2023/04/21 04:28:51;;;;;;;423.65;24.67;;;4.50;99.90;;;;;;4984458;28;20444;-68
2023/04/21 04:31:18;;;;;;;237.27;22.42;;;4.50;99.90;;;;;;4990009;28;20026;-68
2023/04/21 04:33:43;;;;;;;219.07;20.67;;;4.40;99.90;;;;;;4981408;28;20038;-69
2023/04/21 04:36:12;;;;;;;66.18;18.75;;;4.40;99.90;;;;;;4987135;28;20034;-71
2023/04/21 04:38:39;;;;;;;46.75;18.83;;;4.40;99.90;;;;;;4983754;28;20038;-71
2023/04/21 04:41:05;;;;;;;56.70;17.42;;;4.50;99.90;;;;;;4987136;28;20105;-72
2023/04/21 04:43:35;;;;;;;113.32;19.33;;;4.50;99.90;;;;;;4983395;28;20745;-69
2023/04/21 04:46:01;;;;;;;140.18;20.00;;;4.60;99.90;;;;;;4990471;28;20072;-70
2023/04/21 04:48:27;;;;;;;81.40;19.02;;;4.70;99.90;;;;;;4987718;28;20030;-70
2023/04/21 04:50:53;;;;;;;50.03;18.52;;;4.70;99.90;;;;;;4989493;28;20467;-71
2023/04/21 04:53:18;;;;;;;59.58;20.50;;;4.80;99.90;;;;;;4987334;28;20018;-70
2023/04/21 04:55:46;;;;;;;70.90;20.05;;;4.80;99.90;;;;;;4986906;28;20030;-72
2023/04/21 04:58:11;;;;;;;51.17;19.52;;;4.80;99.90;;;;;;4987476;28;20049;-69
2023/04/21 05:00:37;;;;;;;100.22;20.63;;;4.80;99.90;;;;;;4984960;28;20134;-71
2023/04/21 05:03:03;;;;;;;164.60;19.65;;;4.80;99.90;;;;;;4987008;28;20069;-68
2023/04/21 05:05:29;;;;;;;83.78;19.90;;;4.80;99.90;;;;;;4988137;28;20084;-69
2023/04/21 05:07:56;;;;;;;90.32;18.90;;;4.80;99.90;;;;;;4987826;28;20124;-69
2023/04/21 05:10:22;;;;;;;52.85;16.17;;;4.80;99.90;;;;;;4988600;28;20042;-70
2023/04/21 05:12:48;;;;;;;115.90;16.83;;;4.80;99.90;;;;;;4989992;28;20670;-70
2023/04/21 05:15:13;;;;;;;41.65;15.35;;;4.80;99.90;;;;;;4991697;28;20117;-70
2023/04/21 05:17:39;;;;;;;50.58;16.70;;;4.80;99.90;;;;;;4987128;28;20026;-71
2023/04/21 05:20:06;;;;;;;96.65;17.23;;;4.80;99.90;;;;;;4987559;28;20046;-72
2023/04/21 05:22:36;;;;;;;57.50;16.05;;;4.70;99.90;;;;;;4986843;28;20105;-72
2023/04/21 05:25:02;;;;;;;43.53;17.05;;;4.70;99.90;;;;;;4988973;28;20046;-72
2023/04/21 05:27:28;;;;;;;49.17;17.48;;;4.70;99.90;;;;;;4985427;28;20046;-71
2023/04/21 05:29:54;;;;;;;99.45;17.27;;;4.70;99.90;;;;;;4986222;28;20096;-69
2023/04/21 05:32:20;;;;;;;88.95;17.25;;;4.80;99.90;;;;;;4985492;28;20049;-70
2023/04/21 05:34:48;;;;;;;63.05;17.63;;;4.90;99.90;;;;;;4989117;28;20046;-71
2023/04/21 05:37:13;;;;;;;86.47;16.60;;;4.80;99.90;;;;;;4983380;28;20459;-71
2023/04/21 05:39:39;;;;;;;80.28;16.10;;;4.80;99.90;;;;;;4977232;28;20129;-69
2023/04/21 05:42:05;;;;;;;85.93;16.95;;;4.80;99.90;;;;;;4984166;28;20030;-69
2023/04/21 05:44:31;;;;;;;131.98;17.85;;;4.90;99.90;;;;;;4988222;28;20062;-69
2023/04/21 05:46:56;;;;;;;73.78;16.83;;;4.90;99.90;;;;;;4987407;28;20046;-72
2023/04/21 05:49:22;;;;;;;87.80;17.83;;;5.00;99.90;;;;;;4988506;28;20022;-70
2023/04/21 05:51:48;;;;;;;120.75;18.38;;;5.00;99.90;;;;;;4985266;28;20560;-70
2023/04/21 05:54:15;;;;;;;53.85;17.63;;;5.00;99.90;;;;;;4986687;28;20505;-70
2023/04/21 05:56:41;;;;;;;50.95;18.67;;;5.10;99.90;;;;;;4986106;28;20391;-67
2023/04/21 05:59:06;;;;;;;72.65;17.73;;;5.20;99.90;;;;;;4980568;28;20030;-69
2023/04/21 06:01:32;;;;;;;104.03;16.65;;;5.20;99.90;;;;;;4984155;28;20031;-69
2023/04/21 06:03:58;;;;;;;159.00;18.60;;;5.10;99.90;;;;;;4988424;28;20065;-69
2023/04/21 06:06:25;;;;;;;103.30;17.77;;;5.10;99.90;;;;;;4987541;28;20084;-69
2023/04/21 06:08:51;;;;;;;117.63;17.60;;;5.10;99.90;;;;;;4980567;28;20046;-72
2023/04/21 06:11:17;;;;;;;53.55;16.08;;;5.10;99.90;;;;;;4985470;28;20030;-71
2023/04/21 06:13:42;;;;;;;61.10;17.42;;;5.20;99.90;;;;;;4979211;28;20034;-73
2023/04/21 06:16:08;;;;;;;131.32;19.30;;;5.30;99.90;;;;;;4988714;28;20105;-71
2023/04/21 06:18:34;;;;;;;63.95;18.08;;;5.30;99.90;;;;;;4984543;28;20359;-73
2023/04/21 06:20:59;;;;;;;40.70;18.05;;;5.40;99.90;;;;;;4986139;28;20042;-73
2023/04/21 06:23:25;;;;;;;43.42;18.73;;;5.40;99.90;;;;;;4982857;28;20439;-72
2023/04/21 06:26:05;;;;;;;65.13;18.02;;;5.50;99.90;;;;;;4983253;28;20038;-72
2023/04/21 06:28:32;;;;;;;99.53;17.33;;;5.60;99.90;;;;;;4971761;28;20031;-73
2023/04/21 06:30:59;;;;;;;39.15;16.63;;;5.60;99.90;;;;;;4977873;28;20045;-71
2023/04/21 06:33:25;;;;;;;50.25;16.85;;;5.60;99.90;;;;;;4981770;28;20031;-70
2023/04/21 06:35:51;;;;;;;40.38;17.40;;;5.50;99.90;;;;;;4984191;28;20030;-71
2023/04/21 06:38:17;;;;;;;65.53;17.83;;;5.60;99.90;;;;;;4981151;28;20045;-71
2023/04/21 06:40:43;;;;;;;62.38;17.15;;;5.60;99.90;;;;;;4987523;28;20402;-70
2023/04/21 06:43:08;;;;;;;41.67;18.10;;;5.60;99.90;;;;;;4970155;28;20034;-69
2023/04/21 06:45:34;;;;;;;42.00;17.88;;;5.60;99.90;;;;;;4981027;28;20063;-71
2023/04/21 06:48:00;;;;;;;42.45;17.42;;;5.70;99.90;;;;;;4987371;28;20832;-71
2023/04/21 06:50:25;;;;;;;41.00;17.90;;;5.80;99.90;;;;;;4985796;28;20096;-71
2023/04/21 06:52:51;;;;;;;43.70;19.08;;;5.90;99.90;;;;;;4980461;28;20038;-71
2023/04/21 06:55:17;;;;;;;41.53;17.45;;;6.00;99.90;;;;;;4986593;28;20574;-71
2023/04/21 06:57:42;;;;;;;44.42;18.75;;;6.00;99.90;;;;;;4984447;28;20023;-71
2023/04/21 07:00:08;;;;;;;44.72;18.73;;;6.10;99.90;;;;;;4983879;28;20045;-71
2023/04/21 07:02:34;;;;;;;40.88;17.85;;;6.30;99.90;;;;;;4980903;28;20077;-72
2023/04/21 07:05:00;;;;;;;37.78;16.98;;;6.40;99.90;;;;;;4983948;28;20422;-72
2023/04/21 07:07:26;;;;;;;44.10;18.25;;;6.50;99.90;;;;;;4983048;28;20061;-75
2023/04/21 07:09:52;;;;;;;46.97;18.67;;;6.60;99.90;;;;;;4983255;28;20069;-75
2023/04/21 07:12:17;;;;;;;40.90;17.88;;;6.70;99.90;;;;;;4984176;28;20112;-74
2023/04/21 07:14:43;;;;;;;41.67;17.88;;;6.80;99.90;;;;;;4983312;28;20045;-72
2023/04/21 07:17:08;;;;;;;39.10;17.98;;;6.90;99.90;;;;;;4983051;28;20089;-74
2023/04/21 07:19:34;;;;;;;42.35;17.88;;;7.00;99.90;;;;;;4979296;28;20502;-73
2023/04/21 07:22:00;;;;;;;38.63;17.60;;;7.20;99.90;;;;;;4985573;28;20037;-72
2023/04/21 07:24:25;;;;;;;38.72;18.08;;;7.40;99.90;;;;;;4982757;28;20042;-71
2023/04/21 07:26:51;;;;;;;38.08;17.88;;;7.40;99.90;;;;;;4984378;28;20767;-73
2023/04/21 07:29:16;;;;;;;41.65;19.20;;;7.60;99.90;;;;;;4986901;28;20077;-72
2023/04/21 07:31:42;;;;;;;43.35;19.15;;;7.70;99.90;;;;;;4990538;28;20030;-75
2023/04/21 07:34:08;;;;;;;42.90;19.42;;;7.80;99.90;;;;;;4991065;28;20042;-71
2023/04/21 07:36:34;;;;;;;41.42;19.10;;;7.70;99.90;;;;;;5003088;28;20053;-73
2023/04/21 07:39:00;;;;;;;43.00;20.08;;;7.70;99.90;;;;;;4989893;28;20621;-73
2023/04/21 07:41:26;;;;;;;48.85;20.27;;;7.70;99.90;;;;;;4989905;28;20039;-71
2023/04/21 07:43:52;;;;;;;47.35;20.48;;;7.80;99.90;;;;;;4990192;28;20582;-72
2023/04/21 07:46:18;;;;;;;47.97;21.20;;;7.80;99.90;;;;;;4991664;28;20034;-71
2023/04/21 07:48:45;;;;;;;45.38;21.05;;;7.80;99.90;;;;;;4990886;28;20070;-71
2023/04/21 07:51:10;;;;;;;44.72;18.77;;;7.90;99.90;;;;;;4988702;28;20037;-71
2023/04/21 07:53:36;;;;;;;44.25;19.60;;;8.10;99.90;;;;;;4989785;28;20476;-71
2023/04/21 07:56:02;;;;;;;48.63;20.33;;;8.20;99.90;;;;;;4989428;28;20026;-73
2023/04/21 07:58:27;;;;;;;46.65;21.35;;;8.30;99.90;;;;;;4991062;28;20462;-72
2023/04/21 08:00:53;;;;;;;44.75;19.38;;;8.50;99.90;;;;;;4990024;28;20026;-74
2023/04/21 08:03:19;;;;;;;42.97;19.20;;;8.60;99.90;;;;;;4985055;28;20076;-76
2023/04/21 08:05:44;;;;;;;46.53;20.52;;;8.70;99.90;;;;;;4989351;28;20431;-73
2023/04/21 08:08:10;;;;;;;43.67;19.48;;;8.80;99.90;;;;;;4991115;28;20510;-72
2023/04/21 08:10:35;;;;;;;41.58;19.90;;;8.90;99.90;;;;;;4990298;28;20414;-72
2023/04/21 08:13:05;;;;;;;40.50;19.27;;;8.90;99.90;;;;;;4991224;28;20471;-71
2023/04/21 08:15:31;;;;;;;45.90;20.42;;;9.10;99.90;;;;;;4988685;28;20125;-73
2023/04/21 08:17:56;;;;;;;43.20;18.88;;;9.10;99.90;;;;;;4989180;28;20019;-73
2023/04/21 08:20:22;;;;;;;42.92;19.40;;;9.20;99.90;;;;;;4989273;28;20467;-73
2023/04/21 08:22:48;;;;;;;47.05;20.35;;;9.20;99.90;;;;;;4990304;28;20061;-72
2023/04/21 08:25:13;;;;;;;41.65;18.52;;;9.30;99.90;;;;;;4990645;28;20034;-72
2023/04/21 08:27:39;;;;;;;44.53;19.23;;;9.30;99.90;;;;;;4988091;28;20027;-72
2023/04/21 08:30:06;;;;;;;42.45;18.90;;;9.40;99.90;;;;;;4989780;28;20038;-75
2023/04/21 08:32:31;;;;;;;41.33;17.63;;;9.40;99.90;;;;;;4988876;28;20080;-72
2023/04/21 08:34:57;;;;;;;37.83;17.42;;;9.60;99.90;;;;;;4987977;28;20034;-73
2023/04/21 08:37:23;;;;;;;37.42;18.08;;;9.70;99.90;;;;;;4972540;28;20039;-72
2023/04/21 08:39:52;;;;;;;38.38;17.00;;;9.80;99.90;;;;;;4989946;28;20038;-72
2023/04/21 08:42:18;;;;;;;34.10;16.95;;;9.90;99.90;;;;;;4988941;28;20119;-73
2023/04/21 08:44:44;;;;;;;38.55;17.33;;;10.00;99.90;;;;;;4989737;28;20387;-73
2023/04/21 08:47:11;;;;;;;35.35;16.60;;;10.10;99.90;;;;;;4990279;28;20026;-73
2023/04/21 08:49:39;;;;;;;36.75;16.70;;;10.30;99.90;;;;;;4986745;28;20218;-72
2023/04/21 08:52:06;;;;;;;31.98;15.75;;;10.60;99.90;;;;;;5003995;28;20618;-75
2023/04/21 08:54:32;;;;;;;33.83;15.63;;;10.80;99.90;;;;;;4989363;28;20038;-71
2023/04/21 08:56:58;;;;;;;32.92;15.15;;;11.10;99.90;;;;;;4988191;28;20034;-71
2023/04/21 08:59:24;;;;;;;36.92;16.35;;;11.20;99.90;;;;;;4970729;28;20038;-71
2023/04/21 09:02:20;;;;;;;34.20;16.05;;;11.40;99.90;;;;;;4979229;28;20198;-71
2023/04/21 09:04:49;;;;;;;36.78;15.90;;;11.50;99.90;;;;;;4988538;28;20038;-72
2023/04/21 09:07:35;;;;;;;29.52;14.60;;;11.40;99.90;;;;;;4988787;28;20539;-71
2023/04/21 09:10:03;;;;;;;34.20;15.70;;;11.40;99.90;;;;;;4988597;28;20054;-71
2023/04/21 09:12:29;;;;;;;28.13;13.60;;;11.40;99.90;;;;;;4980793;28;20545;-72
2023/04/21 09:14:56;;;;;;;29.38;14.82;;;11.70;99.90;;;;;;4988250;28;20050;-73
2023/04/21 09:17:32;;;;;;;31.45;16.33;;;11.70;99.90;;;;;;4979835;28;20034;-71
2023/04/21 09:20:11;;;;;;;28.45;14.25;;;11.60;99.90;;;;;;4972456;28;20065;-73
2023/04/21 09:22:37;;;;;;;29.25;15.00;;;11.30;99.90;;;;;;4989525;28;20558;-71
2023/04/21 09:25:03;;;;;;;30.95;14.40;;;11.10;99.90;;;;;;4971402;28;20122;-70
2023/04/21 09:27:29;;;;;;;30.13;15.02;;;11.20;99.90;;;;;;4974858;28;20041;-69
2023/04/21 09:30:01;;;;;;;29.08;14.32;;;11.40;99.90;;;;;;4988730;28;20608;-68
2023/04/21 09:32:26;;;;;;;33.72;14.88;;;11.60;99.90;;;;;;4987482;28;20030;-68
2023/04/21 09:34:58;;;;;;;32.92;14.82;;;11.70;99.90;;;;;;4987952;28;20498;-68
2023/04/21 09:37:30;;;;;;;27.95;14.25;;;11.90;99.90;;;;;;4988229;28;20049;-69
2023/04/21 09:39:56;;;;;;;24.63;12.25;;;12.00;99.90;;;;;;4987046;28;20104;-69
2023/04/21 09:42:28;;;;;;;21.80;11.90;;;12.20;99.90;;;;;;4987833;28;20038;-69
2023/04/21 09:44:54;;;;;;;25.05;12.48;;;12.50;99.90;;;;;;4987695;28;20046;-70
2023/04/21 09:47:21;;;;;;;22.33;12.38;;;12.80;99.90;;;;;;4971864;28;20058;-70
2023/04/21 09:49:50;;;;;;;24.85;13.30;;;13.10;99.90;;;;;;4983648;28;20092;-66
2023/04/21 09:52:18;;;;;;;22.95;12.63;;;13.30;99.90;;;;;;4989550;28;20045;-71
2023/04/21 09:54:53;;;;;;;23.52;12.30;;;13.40;99.90;;;;;;4987603;28;20093;-71
2023/04/21 09:57:25;;;;;;;28.00;13.45;;;13.70;99.90;;;;;;4987626;28;20077;-70
2023/04/21 09:59:58;;;;;;;21.80;12.13;;;13.80;99.90;;;;;;4987545;28;20144;-70
2023/04/21 10:02:28;;;;;;;26.67;12.57;;;13.70;99.90;;;;;;4986184;28;20030;-69
2023/04/21 10:04:54;;;;;;;26.05;13.60;;;13.40;99.90;;;;;;4987539;28;20269;-68
2023/04/21 10:07:20;;;;;;;29.38;15.05;;;13.70;99.90;;;;;;4988919;28;20614;-67
2023/04/21 10:09:50;;;;;;;32.20;17.30;;;14.00;99.90;;;;;;4985218;28;20044;-69
2023/04/21 10:12:17;;;;;;;24.38;13.05;;;14.20;99.90;;;;;;4998206;28;20058;-69
2023/04/21 10:14:43;;;;;;;24.63;13.43;;;14.40;99.90;;;;;;4986844;28;20042;-67
2023/04/21 10:17:10;;;;;;;26.10;13.85;;;14.60;99.90;;;;;;4984876;28;20027;-68
2023/04/21 10:19:40;;;;;;;25.38;14.15;;;14.30;99.90;;;;;;4987665;28;20036;-68
2023/04/21 10:22:09;;;;;;;25.02;13.32;;;13.80;99.90;;;;;;4976493;28;20077;-68
2023/04/21 10:24:39;;;;;;;30.35;14.20;;;13.90;99.90;;;;;;4985096;28;20467;-68
2023/04/21 10:27:09;;;;;;;26.05;14.57;;;13.90;99.90;;;;;;4986117;28;20058;-68
2023/04/21 10:29:35;;;;;;;25.05;13.52;;;14.20;99.90;;;;;;4992503;28;20042;-69
2023/04/21 10:32:03;;;;;;;25.55;12.95;;;14.40;99.90;;;;;;4985667;28;20037;-69
2023/04/21 10:34:37;;;;;;;29.38;13.57;;;14.80;99.90;;;;;;4987921;28;20027;-69
2023/04/21 10:37:02;;;;;;;24.05;12.82;;;14.70;99.90;;;;;;4983340;28;20034;-70
2023/04/21 10:39:35;;;;;;;24.17;13.18;;;14.60;99.90;;;;;;4971401;28;20437;-69
2023/04/21 10:42:12;;;;;;;23.10;11.85;;;14.70;99.90;;;;;;4986154;28;20030;-69
2023/04/21 10:44:51;;;;;;;23.38;12.77;;;14.90;99.90;;;;;;4985813;28;20042;-69
2023/04/21 10:47:44;;;;;;;25.17;13.13;;;14.90;99.90;;;;;;4978114;28;20084;-69
2023/04/21 10:50:20;;;;;;;22.23;12.68;;;15.10;99.90;;;;;;4982182;28;20045;-69
2023/04/21 10:52:54;;;;;;;22.73;11.77;;;15.20;99.90;;;;;;4986024;28;20430;-68
2023/04/21 10:55:21;;;;;;;20.52;11.75;;;15.00;99.90;;;;;;4992672;28;20141;-68
2023/04/21 10:57:47;;;;;;;23.38;11.85;;;14.90;99.90;;;;;;4986440;28;20042;-69
2023/04/21 11:00:21;;;;;;;21.33;11.82;;;14.80;99.90;;;;;;4988697;28;20129;-69
2023/04/21 11:02:59;;;;;;;23.35;12.25;;;15.20;99.90;;;;;;4988813;28;20158;-70
2023/04/21 11:05:40;;;;;;;19.80;11.27;;;15.40;99.90;;;;;;4989904;28;20438;-69
2023/04/21 11:08:07;;;;;;;22.63;11.77;;;15.40;99.90;;;;;;4991579;28;20055;-69
2023/04/21 11:10:50;;;;;;;24.13;11.70;;;15.40;99.90;;;;;;4992203;28;20412;-68
2023/04/21 11:13:16;;;;;;;20.67;11.13;;;15.60;99.90;;;;;;4992255;28;20037;-70
2023/04/21 11:16:05;;;;;;;20.15;10.90;;;15.60;99.90;;;;;;4992403;28;20030;-68
2023/04/21 11:18:42;;;;;;;20.38;10.30;;;15.60;99.90;;;;;;4992690;28;20196;-69
2023/04/21 11:21:16;;;;;;;17.48;10.32;;;15.80;99.90;;;;;;4993797;28;20031;-68
2023/04/21 11:23:51;;;;;;;18.50;10.13;;;16.00;99.90;;;;;;4991482;28;20030;-68
2023/04/21 11:26:19;;;;;;;18.48;9.80;;;16.20;99.90;;;;;;4990920;28;20383;-68
2023/04/21 11:28:48;;;;;;;16.15;9.27;;;16.40;99.90;;;;;;4991322;28;20452;-68
2023/04/21 11:31:14;;;;;;;18.00;9.60;;;16.50;99.90;;;;;;4991798;28;20026;-68
2023/04/21 11:33:40;;;;;;;14.95;8.85;;;16.60;99.90;;;;;;4991806;28;20039;-68
2023/04/21 11:36:07;;;;;;;18.92;9.73;;;16.50;99.90;;;;;;4995199;28;20038;-69
2023/04/21 11:38:50;;;;;;;18.77;10.15;;;16.40;99.90;;;;;;5011121;28;20026;-68
2023/04/21 11:41:23;;;;;;;19.45;10.25;;;16.20;99.90;;;;;;4993126;28;20125;-68
2023/04/21 11:43:50;;;;;;;16.65;9.77;;;16.10;99.90;;;;;;4990209;28;20038;-68
2023/04/21 11:46:24;;;;;;;18.60;10.25;;;16.20;99.90;;;;;;4990865;28;20038;-68
2023/04/21 11:49:01;;;;;;;20.30;10.18;;;15.90;99.90;;;;;;4990700;28;20026;-69
2023/04/21 11:51:36;;;;;;;20.50;11.35;;;16.30;99.90;;;;;;4991633;28;20054;-68
2023/04/21 11:54:04;;;;;;;18.40;10.57;;;16.40;99.90;;;;;;5001257;28;20044;-69
2023/04/21 11:56:33;;;;;;;20.20;10.25;;;16.60;99.90;;;;;;4990036;28;20053;-68
2023/04/21 11:58:58;;;;;;;19.52;9.93;;;16.60;99.90;;;;;;4988265;28;20034;-68
2023/04/21 12:01:26;;;;;;;16.27;9.27;;;16.50;99.90;;;;;;4990920;28;20505;-68
2023/04/21 12:03:55;;;;;;;17.85;9.52;;;16.60;99.90;;;;;;4989891;28;20105;-69
2023/04/21 12:06:28;;;;;;;18.58;9.45;;;16.60;99.90;;;;;;4990858;28;20035;-69
2023/04/21 12:08:56;;;;;;;16.95;9.25;;;16.50;99.90;;;;;;4986170;28;20066;-68
2023/04/21 12:11:23;;;;;;;16.77;9.00;;;16.50;99.90;;;;;;4992460;28;20038;-68
2023/04/21 12:13:49;;;;;;;15.52;8.77;;;17.00;99.90;;;;;;4989937;28;20034;-68
2023/04/21 12:16:14;;;;;;;14.60;8.52;;;17.40;99.90;;;;;;4988672;28;20027;-69
2023/04/21 12:18:41;;;;;;;14.75;8.93;;;17.70;99.90;;;;;;4987860;28;20109;-67
2023/04/21 12:21:07;;;;;;;14.90;8.88;;;17.60;99.90;;;;;;4985638;28;20026;-68
2023/04/21 12:23:33;;;;;;;15.70;8.68;;;17.50;99.90;;;;;;4990247;28;20050;-69
2023/04/21 12:25:59;;;;;;;14.18;8.18;;;17.20;99.90;;;;;;4986705;28;20034;-70
2023/04/21 12:28:25;;;;;;;13.93;8.00;;;17.20;99.90;;;;;;5004542;28;20056;-69
2023/04/21 12:30:51;;;;;;;16.58;8.32;;;17.00;99.90;;;;;;4989164;28;20046;-70
2023/04/21 12:33:16;;;;;;;14.15;7.43;;;17.40;99.90;;;;;;4984737;28;20034;-69